createdAt,value
2022-10-25T00:00:31.615Z,2.85
2022-10-25T00:02:33.820Z,2.91
2022-10-25T00:03:33.892Z,2.95
2022-10-25T00:04:34.303Z,3.02
2022-10-25T00:05:34.817Z,3.06
2022-10-25T00:06:35.025Z,3.05
2022-10-25T00:07:35.454Z,3.01
2022-10-25T00:08:35.764Z,3
2022-10-25T00:09:36.176Z,3.03
2022-10-25T00:10:37.413Z,3.03
2022-10-25T00:11:36.913Z,3.02
2022-10-25T00:13:38.760Z,3.03
2022-10-25T00:14:38.874Z,3.03
2022-10-25T00:15:39.287Z,3.04
2022-10-25T00:16:39.592Z,3.06
2022-10-25T00:17:39.995Z,3.07
2022-10-25T00:18:40.236Z,3.12
2022-10-25T00:19:40.553Z,3.13
2022-10-25T00:20:41.064Z,3.14
2022-10-25T00:21:41.384Z,3.17
2022-10-25T00:22:41.895Z,3.15
2022-10-25T00:23:42.104Z,3.12
2022-10-25T00:24:42.525Z,3.19
2022-10-25T00:25:42.744Z,3.22
2022-10-25T00:26:43.254Z,3.18
2022-10-25T00:27:43.669Z,3.23
2022-10-25T00:28:44.075Z,3.25
2022-10-25T00:29:44.296Z,3.29
2022-10-25T00:30:44.599Z,3.29
2022-10-25T00:31:45.437Z,3.27
2022-10-25T00:32:45.906Z,3.29
2022-10-25T00:33:46.261Z,3.3
2022-10-25T00:34:46.370Z,3.29
2022-10-25T00:35:46.483Z,3.29
2022-10-25T00:36:46.875Z,3.32
2022-10-25T00:37:47.307Z,3.36
2022-10-25T00:38:48.047Z,3.33
2022-10-25T00:39:47.914Z,3.29
2022-10-25T00:40:48.462Z,3.27
2022-10-25T00:41:48.783Z,3.31
2022-10-25T00:42:49.387Z,3.32
2022-10-25T00:44:59.162Z,3.38
2022-10-25T00:45:57.066Z,3.41
2022-10-25T00:46:56.995Z,3.41
2022-10-25T00:51:04.097Z,3.35
2022-10-25T00:52:06.714Z,3.36
2022-10-25T00:54:11.037Z,3.44
2022-10-25T00:55:10.135Z,3.45
2022-10-25T01:00:18.892Z,3.58
2022-10-25T01:01:19.247Z,3.58
2022-10-25T01:02:21.975Z,3.51
2022-10-25T01:03:22.624Z,3.49
2022-10-25T01:04:22.604Z,3.46
2022-10-25T01:05:21.587Z,3.52
2022-10-25T01:07:24.577Z,3.57
2022-10-25T01:08:25.518Z,3.6
2022-10-25T01:09:28.063Z,3.61
2022-10-25T01:10:26.433Z,3.6
2022-10-25T01:11:25.683Z,3.58
2022-10-25T01:12:26.253Z,3.6
2022-10-25T01:13:26.734Z,3.6
2022-10-25T01:14:28.104Z,3.61
2022-10-25T01:39:29.597Z,3.97
2022-10-25T01:47:50.357Z,4.04
2022-10-25T01:48:48.394Z,4.06
2022-10-25T01:50:49.325Z,4.08
2022-10-25T01:51:49.446Z,4.11
2022-10-25T01:52:49.894Z,4.13
2022-10-25T01:53:52.218Z,4.14
2022-10-25T01:54:51.613Z,4.1
2022-10-25T01:55:57.040Z,4.09
2022-10-25T02:11:35.855Z,4.15
2022-10-25T02:16:54.526Z,4.23
2022-10-25T02:18:00.055Z,4.24
2022-10-25T02:19:01.198Z,4.27
2022-10-25T02:19:59.325Z,4.27
2022-10-25T02:20:58.842Z,4.25
2022-10-25T02:21:58.956Z,4.28
2022-10-25T02:23:01.106Z,4.28
2022-10-25T02:24:03.879Z,4.26
2022-10-25T02:25:01.647Z,4.3
2022-10-25T02:26:05.956Z,4.31
2022-10-25T02:27:05.539Z,4.33
2022-10-25T02:28:09.134Z,4.32
2022-10-25T02:29:08.945Z,4.35
2022-10-25T02:30:08.304Z,4.37
2022-10-25T02:31:15.518Z,4.34
2022-10-25T02:32:08.743Z,4.35
2022-10-25T02:33:08.443Z,4.35
2022-10-25T02:34:08.763Z,4.39
2022-10-25T02:35:14.709Z,4.39
2022-10-25T02:37:17.794Z,4.44
2022-10-25T02:38:17.283Z,4.43
2022-10-25T02:39:19.740Z,4.4
2022-10-25T02:40:18.630Z,4.42
2022-10-25T02:41:20.286Z,4.46
2022-10-25T02:42:18.849Z,4.46
2022-10-25T02:43:19.425Z,4.45
2022-10-25T02:44:19.683Z,4.42
2022-10-25T02:45:20.304Z,4.45
2022-10-25T02:46:22.665Z,4.46
2022-10-25T02:47:20.827Z,4.43
2022-10-25T02:48:21.146Z,4.42
2022-10-25T02:49:21.464Z,4.44
2022-10-25T02:50:22.024Z,4.48
2022-10-25T02:51:22.288Z,4.5
2022-10-25T02:52:22.707Z,4.52
2022-10-25T02:53:23.034Z,4.51
2022-10-25T02:54:23.642Z,4.51
2022-10-25T02:55:23.758Z,4.53
2022-10-25T02:56:24.786Z,4.52
2022-10-25T02:57:24.788Z,4.52
2022-10-25T02:58:24.991Z,4.49
2022-10-25T02:59:25.307Z,4.48
2022-10-25T03:00:25.644Z,4.49
2022-10-25T03:01:26.743Z,4.49
2022-10-25T03:02:26.667Z,4.5
2022-10-25T03:03:28.201Z,4.52
2022-10-25T03:04:27.286Z,4.52
2022-10-25T03:05:27.607Z,4.44
2022-10-25T03:06:28.114Z,4.43
2022-10-25T03:07:28.535Z,4.43
2022-10-25T03:09:29.163Z,4.49
2022-10-25T03:10:29.473Z,4.47
2022-10-25T03:11:29.901Z,4.5
2022-10-25T03:12:30.216Z,4.45
2022-10-25T03:13:30.744Z,4.47
2022-10-25T03:14:31.044Z,4.51
2022-10-25T03:15:31.454Z,4.49
2022-10-25T03:16:31.774Z,4.49
2022-10-25T03:17:32.094Z,4.47
2022-10-25T03:18:32.913Z,4.47
2022-10-25T03:19:32.840Z,4.5
2022-10-25T03:20:34.046Z,4.49
2022-10-25T03:21:37.577Z,4.52
2022-10-25T03:22:37.336Z,4.51
2022-10-25T03:23:38.178Z,4.54
2022-10-25T03:24:38.146Z,4.52
2022-10-25T03:25:38.686Z,4.5
2022-10-25T03:26:39.010Z,4.54
2022-10-25T03:27:39.313Z,4.49
2022-10-25T03:28:39.631Z,4.48
2022-10-25T03:29:40.248Z,4.51
2022-10-25T03:30:42.508Z,4.51
2022-10-25T03:31:40.842Z,4.5
2022-10-25T03:32:41.614Z,4.5
2022-10-25T03:33:42.015Z,4.51
2022-10-25T03:34:42.022Z,4.53
2022-10-25T03:35:42.758Z,4.55
2022-10-25T03:36:43.062Z,4.55
2022-10-25T03:37:43.759Z,4.55
2022-10-25T03:38:43.999Z,4.55
2022-10-25T03:39:44.121Z,4.56
2022-10-25T03:40:45.265Z,4.6
2022-10-25T03:41:45.257Z,4.61
2022-10-25T03:42:45.774Z,4.66
2022-10-25T03:43:46.004Z,4.63
2022-10-25T03:44:46.096Z,4.62
2022-10-25T03:45:46.413Z,4.62
2022-10-25T03:46:46.931Z,4.59
2022-10-25T03:47:47.861Z,4.58
2022-10-25T03:48:47.555Z,4.57
2022-10-25T03:49:48.161Z,4.59
2022-10-25T03:50:48.077Z,4.54
2022-10-25T03:51:51.186Z,4.52
2022-10-25T03:52:51.787Z,4.54
2022-10-25T03:53:52.110Z,4.59
2022-10-25T03:54:52.704Z,4.6
2022-10-25T03:55:53.035Z,4.6
2022-10-25T03:56:53.535Z,4.59
2022-10-25T03:57:53.864Z,4.61
2022-10-25T03:58:54.386Z,4.61
2022-10-25T03:59:54.798Z,4.6
2022-10-25T04:00:54.919Z,4.61
2022-10-25T04:01:55.501Z,4.51
2022-10-25T04:03:01.711Z,4.53
2022-10-25T04:04:00.870Z,4.52
2022-10-25T04:05:01.186Z,4.52
2022-10-25T04:06:01.496Z,4.5
2022-10-25T04:07:01.905Z,4.51
2022-10-25T04:08:02.225Z,4.46
2022-10-25T04:09:02.544Z,4.46
2022-10-25T04:10:03.158Z,4.47
2022-10-25T04:11:03.474Z,4.47
2022-10-25T04:12:04.100Z,4.46
2022-10-25T04:13:04.305Z,4.43
2022-10-25T04:14:04.112Z,4.45
2022-10-25T04:15:05.019Z,4.43
2022-10-25T04:16:08.824Z,4.41
2022-10-25T04:17:06.277Z,4.42
2022-10-25T04:18:06.693Z,4.42
2022-10-25T04:19:07.158Z,4.47
2022-10-25T04:20:08.235Z,4.45
2022-10-25T04:21:07.834Z,4.45
2022-10-25T04:22:08.137Z,4.44
2022-10-25T04:23:08.564Z,4.49
2022-10-25T04:24:09.084Z,4.48
2022-10-25T04:25:09.668Z,4.5
2022-10-25T04:26:09.704Z,4.49
2022-10-25T04:27:10.012Z,4.48
2022-10-25T04:28:10.340Z,4.49
2022-10-25T04:29:11.661Z,4.49
2022-10-25T04:30:12.393Z,4.46
2022-10-25T04:31:11.593Z,4.47
2022-10-25T04:32:11.907Z,4.48
2022-10-25T04:33:12.615Z,4.5
2022-10-25T04:34:12.629Z,4.5
2022-10-25T04:35:13.145Z,4.51
2022-10-25T04:36:13.566Z,4.49
2022-10-25T04:37:13.843Z,4.43
2022-10-25T04:38:14.184Z,4.45
2022-10-25T04:39:14.602Z,4.49
2022-10-25T04:40:15.193Z,4.51
2022-10-25T04:41:15.705Z,4.51
2022-10-25T04:42:15.753Z,4.52
2022-10-25T04:43:16.166Z,4.49
2022-10-25T04:44:16.681Z,4.51
2022-10-25T04:45:17.299Z,4.48
2022-10-25T04:46:17.413Z,4.46
2022-10-25T04:47:17.778Z,4.49
2022-10-25T04:48:21.231Z,4.49
2022-10-25T04:49:19.073Z,4.46
2022-10-25T04:50:19.156Z,4.45
2022-10-25T04:51:19.693Z,4.42
2022-10-25T04:52:19.810Z,4.4
2022-10-25T04:53:20.119Z,4.4
2022-10-25T04:54:20.541Z,4.42
2022-10-25T04:55:21.050Z,4.35
2022-10-25T04:56:21.578Z,4.33
2022-10-25T04:57:21.781Z,4.39
2022-10-25T04:58:22.125Z,4.36
2022-10-25T04:59:22.530Z,4.4
2022-10-25T05:00:23.343Z,4.39
2022-10-25T05:01:23.874Z,4.38
2022-10-25T05:02:24.747Z,4.38
2022-10-25T05:03:24.741Z,4.36
2022-10-25T05:04:25.072Z,4.35
2022-10-25T05:05:26.136Z,4.35
2022-10-25T05:06:27.275Z,4.37
2022-10-25T05:07:26.132Z,4.37
2022-10-25T05:08:26.571Z,4.37
2022-10-25T05:09:26.878Z,4.38
2022-10-25T05:10:27.293Z,4.39
2022-10-25T05:11:27.686Z,4.36
2022-10-25T05:12:28.034Z,4.35
2022-10-25T05:13:32.238Z,4.39
2022-10-25T05:14:29.779Z,4.4
2022-10-25T05:15:30.195Z,4.39
2022-10-25T05:16:30.619Z,4.39
2022-10-25T05:17:31.011Z,4.4
2022-10-25T05:18:32.282Z,4.37
2022-10-25T05:19:31.721Z,4.39
2022-10-25T05:20:31.966Z,4.39
2022-10-25T05:21:32.558Z,4.38
2022-10-25T05:22:32.816Z,4.41
2022-10-25T05:23:34.553Z,4.35
2022-10-25T05:24:33.635Z,4.34
2022-10-25T05:25:34.002Z,4.32
2022-10-25T05:26:34.365Z,4.34
2022-10-25T05:27:38.477Z,4.33
2022-10-25T05:28:37.453Z,4.32
2022-10-25T05:29:36.333Z,4.33
2022-10-25T05:30:41.352Z,4.29
2022-10-25T05:31:41.365Z,4.31
2022-10-25T05:32:39.324Z,4.34
2022-10-25T05:33:39.946Z,4.33
2022-10-25T05:34:39.947Z,4.31
2022-10-25T05:35:40.302Z,4.33
2022-10-25T05:36:40.705Z,4.38
2022-10-25T05:37:41.096Z,4.38
2022-10-25T05:38:42.437Z,4.38
2022-10-25T05:39:41.936Z,4.37
2022-10-25T05:40:42.240Z,4.37
2022-10-25T05:41:42.653Z,4.37
2022-10-25T05:42:43.084Z,4.37
2022-10-25T05:43:44.726Z,4.38
2022-10-25T05:44:43.911Z,4.43
2022-10-25T05:45:44.121Z,4.47
2022-10-25T05:46:45.404Z,4.45
2022-10-25T05:47:44.951Z,4.43
2022-10-25T05:48:48.920Z,4.45
2022-10-25T05:49:46.986Z,4.4
2022-10-25T05:50:47.545Z,4.43
2022-10-25T05:51:47.852Z,4.46
2022-10-25T05:52:48.252Z,4.52
2022-10-25T05:53:50.731Z,4.5
2022-10-25T05:54:48.894Z,4.48
2022-10-25T05:55:49.055Z,4.44
2022-10-25T05:56:49.929Z,4.49
2022-10-25T05:57:52.660Z,4.45
2022-10-25T05:58:50.750Z,4.48
2022-10-25T05:59:50.657Z,4.5
2022-10-25T06:00:51.197Z,4.5
2022-10-25T06:01:51.508Z,4.5
2022-10-25T06:02:52.011Z,4.56
2022-10-25T06:03:53.864Z,4.56
2022-10-25T06:04:52.646Z,4.54
2022-10-25T06:05:53.372Z,4.56
2022-10-25T06:06:53.570Z,4.55
2022-10-25T06:07:53.582Z,4.59
2022-10-25T06:08:58.102Z,4.58
2022-10-25T06:09:55.443Z,4.62
2022-10-25T06:10:55.957Z,4.63
2022-10-25T06:11:56.479Z,4.66
2022-10-25T06:12:56.584Z,4.63
2022-10-25T06:13:57.313Z,4.64
2022-10-25T06:14:57.525Z,4.61
2022-10-25T06:15:57.929Z,4.61
2022-10-25T06:16:58.560Z,4.6
2022-10-25T06:17:58.532Z,4.61
2022-10-25T06:18:59.179Z,4.57
2022-10-25T06:19:59.504Z,4.56
2022-10-25T06:21:12.103Z,4.57
2022-10-25T06:22:04.742Z,4.59
2022-10-25T06:23:07.998Z,4.54
2022-10-25T06:24:09.349Z,4.5
2022-10-25T06:25:09.571Z,4.5
2022-10-25T06:26:13.887Z,4.52
2022-10-25T06:27:11.731Z,4.55
2022-10-25T06:28:11.833Z,4.56
2022-10-25T06:29:12.250Z,4.56
2022-10-25T06:30:13.280Z,4.56
2022-10-25T06:31:17.801Z,4.56
2022-10-25T06:32:15.652Z,4.57
2022-10-25T06:33:15.653Z,4.56
2022-10-25T06:34:16.183Z,4.59
2022-10-25T06:35:16.591Z,4.65
2022-10-25T06:36:22.341Z,4.66
2022-10-25T06:37:19.850Z,4.64
2022-10-25T06:38:20.089Z,4.66
2022-10-25T06:39:20.405Z,4.67
2022-10-25T06:41:27.082Z,4.71
2022-10-25T06:42:24.747Z,4.71
2022-10-25T06:43:24.938Z,4.75
2022-10-25T06:44:25.561Z,4.73
2022-10-25T06:45:26.079Z,4.68
2022-10-25T06:46:30.801Z,4.68
2022-10-25T06:47:28.551Z,4.65
2022-10-25T06:48:28.657Z,4.65
2022-10-25T06:49:29.173Z,4.67
2022-10-25T06:50:29.504Z,4.69
2022-10-25T06:51:30.117Z,4.68
2022-10-25T06:52:30.280Z,4.69
2022-10-25T06:53:30.853Z,4.73
2022-10-25T06:54:31.011Z,4.71
2022-10-25T06:55:31.783Z,4.72
2022-10-25T06:56:32.042Z,4.74
2022-10-25T06:57:32.130Z,4.75
2022-10-25T06:58:33.541Z,4.76
2022-10-25T06:59:33.244Z,4.77
2022-10-25T07:00:33.259Z,4.78
2022-10-25T07:01:34.157Z,4.75
2022-10-25T07:02:34.394Z,4.76
2022-10-25T07:03:34.702Z,4.8
2022-10-25T07:04:35.011Z,4.79
2022-10-25T07:05:35.121Z,4.83
2022-10-25T07:06:36.345Z,4.84
2022-10-25T07:07:36.263Z,4.84
2022-10-25T07:08:38.029Z,4.89
2022-10-25T07:09:36.891Z,4.94
2022-10-25T07:10:37.101Z,4.9
2022-10-25T07:11:38.230Z,4.93
2022-10-25T07:12:37.928Z,4.92
2022-10-25T07:13:38.251Z,4.92
2022-10-25T07:14:38.664Z,4.95
2022-10-25T07:15:41.429Z,4.97
2022-10-25T07:16:39.922Z,4.95
2022-10-25T07:17:40.214Z,4.97
2022-10-25T07:18:41.563Z,5
2022-10-25T07:19:40.850Z,5.05
2022-10-25T07:20:41.372Z,5.06
2022-10-25T07:21:41.783Z,5.06
2022-10-25T07:22:41.947Z,5.05
2022-10-25T07:23:43.841Z,5.07
2022-10-25T07:24:43.145Z,5.07
2022-10-25T07:25:43.863Z,5.03
2022-10-25T07:26:44.127Z,5.08
2022-10-25T07:27:44.325Z,5.1
2022-10-25T07:28:46.122Z,5.13
2022-10-25T07:29:44.801Z,5.14
2022-10-25T07:30:48.403Z,5.17
2022-10-25T07:31:45.850Z,5.16
2022-10-25T07:32:46.149Z,5.16
2022-10-25T07:33:47.591Z,5.12
2022-10-25T07:34:46.982Z,5.16
2022-10-25T07:35:59.089Z,5.14
2022-10-25T07:36:51.104Z,5.12
2022-10-25T07:37:51.303Z,5.11
2022-10-25T07:38:51.684Z,5.13
2022-10-25T07:39:52.029Z,5.14
2022-10-25T07:41:54.672Z,5.16
2022-10-25T07:42:54.722Z,5.16
2022-10-25T07:43:55.348Z,5.22
2022-10-25T07:44:55.454Z,5.23
2022-10-25T07:45:56.273Z,5.27
2022-10-25T07:46:56.284Z,5.27
2022-10-25T07:47:56.589Z,5.27
2022-10-25T07:48:57.116Z,5.27
2022-10-25T07:49:57.320Z,5.27
2022-10-25T07:50:57.742Z,5.3
2022-10-25T07:51:58.371Z,5.31
2022-10-25T07:52:58.784Z,5.28
2022-10-25T07:53:59.087Z,5.28
2022-10-25T07:54:59.414Z,5.28
2022-10-25T07:55:59.718Z,5.29
2022-10-25T07:57:00.235Z,5.34
2022-10-25T07:59:04.559Z,5.32
2022-10-25T08:01:09.131Z,5.35
2022-10-25T08:02:08.571Z,5.33
2022-10-25T08:03:07.708Z,5.35
2022-10-25T08:04:07.665Z,5.38
2022-10-25T08:05:08.691Z,5.41
2022-10-25T08:06:08.803Z,5.4
2022-10-25T08:07:08.914Z,5.44
2022-10-25T08:08:09.428Z,5.41
2022-10-25T08:09:20.410Z,5.4
2022-10-25T08:10:12.502Z,5.39
2022-10-25T08:11:13.037Z,5.43
2022-10-25T08:12:13.242Z,5.45
2022-10-25T08:13:13.672Z,5.48
2022-10-25T08:14:14.150Z,5.49
2022-10-25T08:15:14.902Z,5.54
2022-10-25T08:16:14.816Z,5.55
2022-10-25T08:17:15.137Z,5.56
2022-10-25T08:18:15.852Z,5.64
2022-10-25T08:19:15.902Z,5.68
2022-10-25T08:20:16.574Z,5.73
2022-10-25T08:21:16.693Z,5.72
2022-10-25T08:22:17.090Z,5.75
2022-10-25T08:23:18.022Z,5.7
2022-10-25T08:24:18.056Z,5.7
2022-10-25T08:25:18.354Z,5.69
2022-10-25T08:26:18.653Z,5.75
2022-10-25T08:27:19.071Z,5.76
2022-10-25T08:28:19.288Z,5.83
2022-10-25T08:29:19.900Z,5.86
2022-10-25T08:30:20.572Z,5.87
2022-10-25T08:31:20.435Z,5.88
2022-10-25T08:32:20.979Z,5.89
2022-10-25T08:33:21.228Z,5.9
2022-10-25T08:34:21.985Z,5.93
2022-10-25T08:35:22.151Z,5.97
2022-10-25T08:36:22.414Z,6.02
2022-10-25T08:37:22.941Z,6.03
2022-10-25T08:38:23.241Z,6.03
2022-10-25T08:39:23.550Z,5.98
2022-10-25T08:47:44.270Z,6.19
2022-10-25T08:51:53.231Z,6.21
2022-10-25T08:53:57.056Z,6.27
2022-10-25T08:55:00.392Z,6.27
2022-10-25T08:56:16.586Z,6.25
2022-10-25T08:58:05.251Z,6.24
2022-10-25T08:59:03.825Z,6.29
2022-10-25T09:04:12.054Z,6.38
2022-10-25T09:17:49.363Z,6.56
2022-10-25T09:18:56.266Z,6.59
2022-10-25T09:30:13.342Z,6.84
2022-10-25T09:34:28.941Z,6.8
2022-10-25T09:37:38.269Z,6.85
2022-10-25T09:39:41.765Z,6.88
2022-10-25T09:40:47.559Z,6.89
2022-10-25T09:41:43.383Z,6.94
2022-10-25T09:42:44.961Z,6.96
2022-10-25T09:43:49.161Z,6.93
2022-10-25T09:44:47.230Z,6.9
2022-10-25T09:45:49.794Z,6.92
2022-10-25T09:53:16.452Z,6.91
2022-10-25T09:54:19.231Z,6.91
2022-10-25T09:56:07.259Z,6.91
2022-10-25T09:57:07.708Z,6.96
2022-10-25T09:59:14.473Z,6.94
2022-10-25T10:00:16.144Z,6.94
2022-10-25T10:02:25.659Z,6.94
2022-10-25T10:03:27.998Z,6.97
2022-10-25T10:04:35.275Z,6.98
2022-10-25T10:05:28.941Z,7
2022-10-25T10:06:40.814Z,6.99
2022-10-25T10:08:35.827Z,6.99
2022-10-25T10:09:36.444Z,7.01
2022-10-25T10:10:35.720Z,6.98
2022-10-25T10:11:36.966Z,6.97
2022-10-25T10:17:45.367Z,7.04
2022-10-25T10:18:45.293Z,7.05
2022-10-25T10:22:54.442Z,7.04
2022-10-25T10:23:55.489Z,7.06
2022-10-25T10:27:02.052Z,7.09
2022-10-25T10:27:59.904Z,7.08
2022-10-25T10:30:07.288Z,7.11
2022-10-25T10:31:06.673Z,7.1
2022-10-25T10:33:17.235Z,7.11
2022-10-25T10:37:21.969Z,7.07
2022-10-25T10:38:28.323Z,7.06
2022-10-25T10:39:22.708Z,7.07
2022-10-25T10:40:24.959Z,7.07
2022-10-25T10:41:29.483Z,7.05
2022-10-25T10:42:38.097Z,7.05
2022-10-25T10:43:32.673Z,7.08
2022-10-25T10:44:32.982Z,7.06
2022-10-25T10:45:31.761Z,7.06
2022-10-25T10:46:32.174Z,7.06
2022-10-25T10:47:35.757Z,7.07
2022-10-25T10:48:41.765Z,7.09
2022-10-25T10:49:38.906Z,7.11
2022-10-25T10:50:36.598Z,7.11
2022-10-25T10:51:44.340Z,7.13
2022-10-25T10:52:42.613Z,7.14
2022-10-25T10:53:40.412Z,7.17
2022-10-25T10:54:47.894Z,7.19
2022-10-25T10:55:53.294Z,7.19
2022-10-25T10:56:58.983Z,7.18
2022-10-25T10:57:46.781Z,7.18
2022-10-25T10:58:53.488Z,7.2
2022-10-25T10:59:56.733Z,7.2
2022-10-25T11:01:00.526Z,7.18
2022-10-25T11:02:10.373Z,7.17
2022-10-25T11:02:58.113Z,7.19
2022-10-25T11:04:01.050Z,7.19
2022-10-25T11:04:58.821Z,7.19
2022-10-25T11:06:00.361Z,7.23
2022-10-25T11:08:03.342Z,7.2
2022-10-25T11:12:13.152Z,7.28
2022-10-25T11:13:22.114Z,7.23
2022-10-25T11:14:16.897Z,7.28
2022-10-25T11:15:15.984Z,7.27
2022-10-25T11:20:38.034Z,7.31
2022-10-25T11:35:07.102Z,7.4
2022-10-25T12:10:37.497Z,7.41
2022-10-25T12:11:39.689Z,7.44
2022-10-25T12:16:43.726Z,7.48
2022-10-25T12:17:42.381Z,7.51
2022-10-25T12:19:49.881Z,7.52
2022-10-25T12:20:49.987Z,7.51
2022-10-25T12:22:01.557Z,7.5
2022-10-25T12:22:52.971Z,7.51
2022-10-25T12:23:54.111Z,7.52
2022-10-25T12:24:59.336Z,7.48
2022-10-25T12:26:06.001Z,7.48
2022-10-25T12:26:58.833Z,7.47
2022-10-25T12:28:11.797Z,7.47
2022-10-25T12:29:02.853Z,7.46
2022-10-25T12:30:05.202Z,7.44
2022-10-25T12:31:14.135Z,7.49
2022-10-25T12:32:15.363Z,7.46
2022-10-25T12:35:23.163Z,7.54
2022-10-25T12:39:31.180Z,7.61
2022-10-25T12:41:27.705Z,7.54
2022-10-25T13:07:17.104Z,7.64
2022-10-25T13:08:19.904Z,7.65
2022-10-25T13:09:22.267Z,7.66
2022-10-25T13:10:21.558Z,7.65
2022-10-25T13:11:19.101Z,7.64
2022-10-25T13:12:22.892Z,7.67
2022-10-25T13:13:29.041Z,7.65
2022-10-25T13:15:26.091Z,7.65
2022-10-25T13:19:53.632Z,7.72
2022-10-25T13:22:39.903Z,7.74
2022-10-25T13:24:44.993Z,7.8
2022-10-25T13:30:50.664Z,7.8
2022-10-25T13:34:56.217Z,7.77
2022-10-25T13:36:00.010Z,7.8
2022-10-25T13:37:00.127Z,7.82
2022-10-25T13:39:04.853Z,7.88
2022-10-25T13:40:13.622Z,7.88
2022-10-25T13:41:18.384Z,7.85
2022-10-25T13:43:21.570Z,7.9
2022-10-25T13:46:23.532Z,7.92
2022-10-25T13:50:33.692Z,7.88
2022-10-25T13:51:32.757Z,7.88
2022-10-25T13:52:34.013Z,7.85
2022-10-25T13:53:45.084Z,7.84
2022-10-25T14:00:47.854Z,7.89
2022-10-25T14:04:55.700Z,7.88
2022-10-25T14:10:00.231Z,7.89
2022-10-25T14:18:23.121Z,7.86
2022-10-25T14:21:29.294Z,7.82
2022-10-25T14:23:34.728Z,7.86
2022-10-25T14:24:34.625Z,7.84
2022-10-25T14:26:38.349Z,7.88
2022-10-25T14:27:38.742Z,7.86
2022-10-25T14:28:39.054Z,7.88
2022-10-25T14:29:39.267Z,7.9
2022-10-25T14:31:44.500Z,7.89
2022-10-25T14:34:53.222Z,7.92
2022-10-25T14:37:57.039Z,7.93
2022-10-25T14:39:59.864Z,7.92
2022-10-25T14:41:02.791Z,7.93
2022-10-25T14:42:02.459Z,7.91
2022-10-25T14:45:18.966Z,7.93
2022-10-25T14:46:16.953Z,7.92
2022-10-25T14:48:17.377Z,7.94
2022-10-25T14:49:18.005Z,7.95
2022-10-25T14:50:24.146Z,7.95
2022-10-25T14:51:27.433Z,7.95
2022-10-25T14:52:30.616Z,7.94
2022-10-25T14:53:28.773Z,7.96
2022-10-25T14:54:34.723Z,7.96
2022-10-25T14:55:33.703Z,7.98
2022-10-25T14:57:33.620Z,7.94
2022-10-25T15:00:36.559Z,7.93
2022-10-25T15:01:38.581Z,7.93
2022-10-25T15:02:41.025Z,7.94
2022-10-25T15:03:46.263Z,7.95
2022-10-25T15:04:40.829Z,7.95
2022-10-25T15:05:41.449Z,7.93
2022-10-25T15:06:40.653Z,7.93
2022-10-25T15:07:42.901Z,7.94
2022-10-25T15:08:42.403Z,7.95
2022-10-25T15:10:49.271Z,7.94
2022-10-25T15:12:51.341Z,7.96
2022-10-25T15:13:50.416Z,7.96
2022-10-25T15:14:49.657Z,7.98
2022-10-25T15:15:51.560Z,7.96
2022-10-25T15:17:53.930Z,7.99
2022-10-25T15:23:13.610Z,7.99
2022-10-25T15:28:16.013Z,8.02
2022-10-25T15:34:25.459Z,8.03
2022-10-25T15:35:27.911Z,8.04
2022-10-25T15:36:28.750Z,8.04
2022-10-25T15:37:28.347Z,8.03
2022-10-25T15:38:42.076Z,8.04
2022-10-25T15:39:30.876Z,8.03
2022-10-25T15:40:31.239Z,8.04
2022-10-25T15:41:31.565Z,8.05
2022-10-25T15:42:32.790Z,8.04
2022-10-25T15:43:32.383Z,8.05
2022-10-25T15:44:32.743Z,8.05
2022-10-25T15:45:33.845Z,8.05
2022-10-25T15:46:34.931Z,8.05
2022-10-25T15:47:35.901Z,8.06
2022-10-25T15:48:34.361Z,8.06
2022-10-25T15:49:34.882Z,8.07
2022-10-25T15:50:35.713Z,8.06
2022-10-25T15:51:39.352Z,8.08
2022-10-25T15:52:36.950Z,8.07
2022-10-25T15:53:37.261Z,8.07
2022-10-25T15:54:37.674Z,8.08
2022-10-25T15:55:38.092Z,8.08
2022-10-25T15:56:38.923Z,8.1
2022-10-25T15:57:39.031Z,8.09
2022-10-25T15:58:39.371Z,8.09
2022-10-25T15:59:39.655Z,8.11
2022-10-25T16:00:40.308Z,8.1
2022-10-25T16:02:41.213Z,8.13
2022-10-25T16:03:41.744Z,8.14
2022-10-25T16:04:41.941Z,8.16
2022-10-25T16:05:42.271Z,8.15
2022-10-25T16:06:43.893Z,8.16
2022-10-25T16:07:43.186Z,8.17
2022-10-25T16:08:43.815Z,8.17
2022-10-25T16:09:44.137Z,8.17
2022-10-25T16:10:44.304Z,8.16
2022-10-25T16:11:51.813Z,8.17
2022-10-25T16:12:58.562Z,8.12
2022-10-25T16:13:53.472Z,8.12
2022-10-25T16:14:53.437Z,8.11
2022-10-25T16:15:52.865Z,8.11
2022-10-25T16:16:53.811Z,8.15
2022-10-25T16:17:53.912Z,8.16
2022-10-25T16:18:54.737Z,8.13
2022-10-25T16:19:54.846Z,8.12
2022-10-25T16:20:55.156Z,8.11
2022-10-25T16:21:55.471Z,8.15
2022-10-25T16:22:57.104Z,8.16
2022-10-25T16:23:56.445Z,8.16
2022-10-25T16:24:56.508Z,8.14
2022-10-25T16:25:57.026Z,8.15
2022-10-25T16:26:57.453Z,8.19
2022-10-25T16:27:57.865Z,8.21
2022-10-25T16:28:58.275Z,8.21
2022-10-25T16:29:58.801Z,8.23
2022-10-25T16:30:59.106Z,8.25
2022-10-25T16:31:59.627Z,8.27
2022-10-25T16:33:00.255Z,8.26
2022-10-25T16:34:00.455Z,8.25
2022-10-25T16:35:00.681Z,8.21
2022-10-25T16:36:01.288Z,8.18
2022-10-25T16:37:02.022Z,8.19
2022-10-25T16:38:02.248Z,8.21
2022-10-25T16:39:02.757Z,8.21
2022-10-25T16:40:03.471Z,8.23
2022-10-25T16:41:03.271Z,8.22
2022-10-25T16:42:03.893Z,8.22
2022-10-25T16:43:04.306Z,8.21
2022-10-25T16:44:04.727Z,8.24
2022-10-25T16:46:09.856Z,8.28
2022-10-25T16:47:10.493Z,8.3
2022-10-25T16:48:10.893Z,8.27
2022-10-25T16:49:11.923Z,8.29
2022-10-25T16:50:11.620Z,8.28
2022-10-25T16:51:16.449Z,8.27
2022-10-25T16:52:14.709Z,8.27
2022-10-25T16:53:14.283Z,8.26
2022-10-25T16:54:15.743Z,8.28
2022-10-25T16:55:15.553Z,8.28
2022-10-25T16:56:16.167Z,8.29
2022-10-25T16:57:16.503Z,8.29
2022-10-25T16:58:16.601Z,8.29
2022-10-25T16:59:17.060Z,8.3
2022-10-25T17:00:17.523Z,8.31
2022-10-25T17:01:22.438Z,8.33
2022-10-25T17:02:22.266Z,8.32
2022-10-25T17:03:20.617Z,8.33
2022-10-25T17:04:21.037Z,8.34
2022-10-25T17:05:29.124Z,8.34
2022-10-25T17:06:40.408Z,8.36
2022-10-25T17:07:24.026Z,8.35
2022-10-25T17:08:24.034Z,8.34
2022-10-25T17:09:24.648Z,8.35
2022-10-25T17:10:24.845Z,8.36
2022-10-25T17:11:25.280Z,8.38
2022-10-25T17:12:25.801Z,8.39
2022-10-25T17:13:25.981Z,8.38
2022-10-25T17:14:26.730Z,8.39
2022-10-25T17:15:27.255Z,8.37
2022-10-25T17:16:27.367Z,8.36
2022-10-25T17:17:27.775Z,8.36
2022-10-25T17:18:28.296Z,8.36
2022-10-25T17:19:28.508Z,8.37
2022-10-25T17:20:29.454Z,8.36
2022-10-25T17:21:29.439Z,8.37
2022-10-25T17:22:30.158Z,8.37
2022-10-25T17:23:30.382Z,8.36
2022-10-25T17:24:30.688Z,8.37
2022-10-25T17:25:31.123Z,8.4
2022-10-25T17:26:31.538Z,8.43
2022-10-25T17:27:32.661Z,8.45
2022-10-25T17:28:32.663Z,8.45
2022-10-25T17:29:32.668Z,8.45
2022-10-25T17:30:33.302Z,8.46
2022-10-25T17:31:33.601Z,8.49
2022-10-25T17:32:34.031Z,8.46
2022-10-25T17:33:34.449Z,8.44
2022-10-25T17:34:34.854Z,8.45
2022-10-25T17:35:35.060Z,8.45
2022-10-25T17:36:35.896Z,8.44
2022-10-25T17:37:36.313Z,8.45
2022-10-25T17:38:36.647Z,8.43
2022-10-25T17:39:36.931Z,8.42
2022-10-25T17:41:40.226Z,8.43
2022-10-25T17:42:40.537Z,8.41
2022-10-25T17:43:42.280Z,8.41
2022-10-25T17:44:41.577Z,8.45
2022-10-25T17:45:43.322Z,8.44
2022-10-25T17:47:42.670Z,8.41
2022-10-25T17:48:43.135Z,8.46
2022-10-25T17:49:43.347Z,8.48
2022-10-25T17:50:43.862Z,8.48
2022-10-25T17:51:44.289Z,8.48
2022-10-25T17:52:44.581Z,8.5
2022-10-25T17:54:48.192Z,8.47
2022-10-25T17:55:48.500Z,8.47
2022-10-25T17:56:49.331Z,8.49
2022-10-25T17:57:50.051Z,8.48
2022-10-25T17:58:50.979Z,8.5
2022-10-25T17:59:50.281Z,8.5
2022-10-25T18:00:50.933Z,8.51
2022-10-25T18:01:51.165Z,8.51
2022-10-25T18:02:53.371Z,8.51
2022-10-25T18:03:52.758Z,8.5
2022-10-25T18:05:08.548Z,8.5
2022-10-25T18:06:56.265Z,8.52
2022-10-25T18:07:56.572Z,8.52
2022-10-25T18:08:58.630Z,8.52
2022-10-25T18:09:57.303Z,8.52
2022-10-25T18:10:57.924Z,8.53
2022-10-25T18:11:58.236Z,8.54
2022-10-25T18:12:58.762Z,8.54
2022-10-25T18:14:00.710Z,8.53
2022-10-25T18:15:02.150Z,8.53
2022-10-25T18:16:01.097Z,8.54
2022-10-25T18:17:00.319Z,8.55
2022-10-25T18:18:00.745Z,8.55
2022-10-25T18:19:03.041Z,8.54
2022-10-25T18:20:01.677Z,8.54
2022-10-25T18:21:09.767Z,8.52
2022-10-25T18:22:07.312Z,8.49
2022-10-25T18:23:08.350Z,8.48
2022-10-25T18:24:12.155Z,8.47
2022-10-25T18:25:10.308Z,8.48
2022-10-25T18:26:12.155Z,8.47
2022-10-25T18:27:12.658Z,8.48
2022-10-25T18:28:12.790Z,8.45
2022-10-25T18:29:13.021Z,8.43
2022-10-25T18:30:13.925Z,8.44
2022-10-25T18:31:14.033Z,8.46
2022-10-25T18:32:14.351Z,8.48
2022-10-25T18:33:14.669Z,8.47
2022-10-25T18:34:15.081Z,8.48
2022-10-25T18:35:15.801Z,8.52
2022-10-25T18:36:18.375Z,8.51
2022-10-25T18:37:16.537Z,8.54
2022-10-25T18:38:19.713Z,8.55
2022-10-25T18:39:17.157Z,8.58
2022-10-25T18:40:17.822Z,8.6
2022-10-25T18:41:26.187Z,8.6
2022-10-25T18:42:18.619Z,8.6
2022-10-25T18:43:19.132Z,8.61
2022-10-25T18:44:19.651Z,8.61
2022-10-25T18:45:19.927Z,8.6
2022-10-25T18:46:20.685Z,8.62
2022-10-25T18:47:20.698Z,8.64
2022-10-25T18:48:21.206Z,8.65